Millboro, Virginia
Current Conditions -  °F | °C
As of 6:15 AM on Tuesday 21 Oct 2014 (Local Time) from KHSP Reporting Station
Overcast Overcast  
Wind Chill: 39°   Ceiling: 300
Heat Index: 46°   Visibility: 7mi
Dew Point: 45°   Wind: 14mph
Humidity: 99%   Direction: 260°W
Pressure: 29.89"   Gusts: NA
Location:  37.98°N, 79.6°W
Report Text: KHSP 211015Z AUTO 26012KT 7SM OVC003 08/07 A2989 RMK AO2 T00750073
Loading
Personal Weather Stations






























Interactive Weather Map
Tropical Storm Tracking
New forecast layout! Learn more

10-Day Weather Forecast

Advertisements
Track Severe Weather on mobile